createdAt,value
2018-08-03T00:01:39.164Z,2.80
2018-08-03T00:04:07.400Z,2.70
2018-08-03T00:06:35.712Z,2.80
2018-08-03T00:09:05.557Z,2.90
2018-08-03T00:11:33.692Z,2.60
2018-08-03T00:14:01.856Z,2.67
2018-08-03T00:16:29.993Z,2.93
2018-08-03T00:18:58.104Z,2.80
2018-08-03T00:21:26.229Z,2.87
2018-08-03T00:23:54.348Z,2.40
2018-08-03T00:26:22.467Z,2.87
2018-08-03T00:28:50.644Z,2.80
2018-08-03T00:31:19.284Z,2.87
2018-08-03T00:33:47.401Z,2.70
2018-08-03T00:36:15.529Z,2.60
2018-08-03T00:38:43.656Z,2.50
2018-08-03T00:41:11.799Z,2.90
2018-08-03T00:43:39.904Z,2.70
2018-08-03T00:46:08.070Z,2.70
2018-08-03T00:48:36.222Z,2.90
2018-08-03T00:51:04.312Z,2.70
2018-08-03T00:53:32.447Z,2.80
2018-08-03T00:56:00.571Z,2.40
2018-08-03T00:58:28.687Z,2.60
2018-08-03T01:00:56.810Z,2.80
2018-08-03T01:03:24.968Z,2.73
2018-08-03T01:05:53.162Z,2.80
2018-08-03T01:08:21.307Z,2.93
2018-08-03T01:10:49.479Z,2.67
2018-08-03T01:13:17.644Z,3.37
2018-08-03T01:15:45.810Z,2.80
2018-08-03T01:18:13.994Z,3.20
2018-08-03T01:20:42.151Z,3.07
2018-08-03T01:23:10.352Z,2.80
2018-08-03T01:25:38.471Z,2.77
2018-08-03T01:28:06.671Z,2.50
2018-08-03T01:30:34.820Z,3.00
2018-08-03T01:33:02.996Z,2.40
2018-08-03T01:35:31.237Z,2.60
2018-08-03T01:37:59.584Z,2.50
2018-08-03T01:40:27.652Z,3.07
2018-08-03T01:42:55.796Z,2.60
2018-08-03T01:45:24.016Z,2.60
2018-08-03T01:47:52.189Z,2.93
2018-08-03T01:50:20.396Z,2.67
2018-08-03T01:52:48.573Z,2.67
2018-08-03T01:55:16.807Z,2.47
2018-08-03T01:57:45.010Z,2.70
2018-08-03T02:00:13.175Z,2.60
2018-08-03T02:02:41.377Z,2.47
2018-08-03T02:05:09.599Z,2.53
2018-08-03T02:07:37.769Z,2.70
2018-08-03T02:10:05.951Z,2.40
2018-08-03T02:12:34.146Z,2.67
2018-08-03T02:15:02.151Z,2.63
2018-08-03T02:17:30.347Z,2.53
2018-08-03T02:19:58.288Z,2.47
2018-08-03T02:22:26.467Z,2.47
2018-08-03T02:24:54.672Z,2.80
2018-08-03T02:27:22.825Z,2.40
2018-08-03T02:29:50.983Z,2.60
2018-08-03T02:32:19.159Z,2.70
2018-08-03T02:34:47.328Z,2.20
2018-08-03T02:37:15.485Z,2.50
2018-08-03T02:39:43.657Z,2.10
2018-08-03T02:42:11.833Z,2.60
2018-08-03T02:44:39.974Z,2.70
2018-08-03T02:47:08.141Z,2.60
2018-08-03T02:49:36.278Z,2.63
2018-08-03T02:52:04.447Z,2.57
2018-08-03T02:54:32.615Z,2.80
2018-08-03T02:57:00.752Z,2.60
2018-08-03T02:59:28.911Z,2.37
2018-08-03T03:01:57.060Z,2.57
2018-08-03T03:04:25.185Z,2.60
2018-08-03T03:06:53.130Z,2.70
2018-08-03T03:09:21.275Z,2.40
2018-08-03T03:11:49.443Z,2.60
2018-08-03T03:14:17.615Z,2.67
2018-08-03T03:16:45.783Z,2.60
2018-08-03T03:19:13.955Z,2.37
2018-08-03T03:21:42.153Z,2.60
2018-08-03T03:24:10.380Z,2.33
2018-08-03T03:26:38.335Z,2.73
2018-08-03T03:29:06.547Z,2.50
2018-08-03T03:31:34.722Z,2.50
2018-08-03T03:34:02.905Z,2.57
2018-08-03T03:36:31.048Z,2.40
2018-08-03T03:38:59.206Z,2.70
2018-08-03T03:41:27.392Z,2.23
2018-08-03T03:43:55.317Z,2.53
2018-08-03T03:46:23.531Z,2.40
2018-08-03T03:48:51.832Z,2.53
2018-08-03T03:51:20.017Z,2.40
2018-08-03T03:53:48.227Z,2.53
2018-08-03T03:56:16.430Z,2.30
2018-08-03T03:58:44.660Z,2.20
2018-08-03T04:01:12.900Z,2.40
2018-08-03T04:03:41.041Z,2.50
2018-08-03T04:06:09.268Z,2.43
2018-08-03T04:08:37.424Z,2.20
2018-08-03T04:11:05.617Z,2.37
2018-08-03T04:13:33.929Z,2.50
2018-08-03T04:16:02.131Z,2.00
2018-08-03T04:18:30.369Z,2.43
2018-08-03T04:20:58.619Z,2.37
2018-08-03T04:23:26.788Z,2.43
2018-08-03T04:25:54.959Z,2.50
2018-08-03T04:28:23.135Z,2.30
2018-08-03T04:30:51.323Z,2.43
2018-08-03T04:33:19.479Z,1.90
2018-08-03T04:35:47.632Z,1.93
2018-08-03T04:38:15.660Z,1.90
2018-08-03T04:40:43.814Z,2.00
2018-08-03T04:43:11.988Z,2.10
2018-08-03T04:45:40.124Z,1.90
2018-08-03T04:48:08.388Z,2.10
2018-08-03T04:50:36.541Z,2.20
2018-08-03T04:53:04.760Z,2.10
2018-08-03T04:55:32.916Z,2.00
2018-08-03T04:58:01.147Z,1.90
2018-08-03T05:00:29.324Z,2.30
2018-08-03T05:02:57.540Z,2.10
2018-08-03T05:05:32.407Z,2.10
2018-08-03T05:08:00.576Z,2.20
2018-08-03T05:10:28.796Z,2.20
2018-08-03T05:12:56.982Z,2.30
2018-08-03T05:15:25.214Z,2.27
2018-08-03T05:17:53.227Z,2.23
2018-08-03T05:20:21.412Z,1.90
2018-08-03T05:22:49.603Z,2.13
2018-08-03T05:25:17.906Z,2.10
2018-08-03T05:27:46.106Z,2.20
2018-08-03T05:30:14.304Z,2.10
2018-08-03T05:32:42.500Z,2.13
2018-08-03T05:35:10.686Z,2.47
2018-08-03T05:37:39.725Z,1.90
2018-08-03T05:40:07.926Z,2.00
2018-08-03T05:42:36.152Z,2.17
2018-08-03T05:45:04.962Z,2.30
2018-08-03T05:47:33.252Z,2.40
2018-08-03T05:50:01.499Z,1.90
2018-08-03T05:52:29.723Z,2.13
2018-08-03T05:54:57.883Z,2.37
2018-08-03T05:57:26.114Z,2.00
2018-08-03T05:59:54.616Z,2.30
2018-08-03T06:02:22.877Z,1.80
2018-08-03T06:04:51.040Z,2.10
2018-08-03T06:07:19.218Z,1.80
2018-08-03T06:09:47.403Z,2.20
2018-08-03T06:12:15.631Z,2.30
2018-08-03T06:14:43.832Z,1.90
2018-08-03T06:17:12.020Z,2.10
2018-08-03T06:19:40.408Z,1.97
2018-08-03T06:22:08.596Z,2.37
2018-08-03T06:24:36.792Z,2.23
2018-08-03T06:27:04.993Z,2.43
2018-08-03T06:29:33.195Z,2.03
2018-08-03T06:32:01.470Z,2.17
2018-08-03T06:34:29.657Z,2.03
2018-08-03T06:36:57.811Z,2.10
2018-08-03T06:39:25.983Z,2.30
2018-08-03T06:41:54.131Z,1.90
2018-08-03T06:44:22.307Z,2.00
2018-08-03T06:46:50.515Z,1.90
2018-08-03T06:49:18.704Z,1.73
2018-08-03T06:51:46.856Z,2.10
2018-08-03T06:54:15.001Z,2.20
2018-08-03T06:56:43.132Z,2.40
2018-08-03T06:59:11.310Z,2.10
2018-08-03T07:01:39.460Z,2.10
2018-08-03T07:04:07.614Z,2.30
2018-08-03T07:06:35.756Z,2.10
2018-08-03T07:09:06.111Z,2.00
2018-08-03T07:11:34.049Z,2.40
2018-08-03T07:14:02.254Z,2.20
2018-08-03T07:16:30.430Z,2.00
2018-08-03T07:18:58.349Z,2.10
2018-08-03T07:21:27.089Z,1.80
2018-08-03T07:23:55.906Z,2.20
2018-08-03T07:26:24.145Z,1.70
2018-08-03T07:28:52.752Z,2.00
2018-08-03T07:31:20.924Z,1.90
2018-08-03T07:33:49.544Z,2.00
2018-08-03T07:36:17.769Z,2.00
2018-08-03T07:38:45.992Z,2.07
2018-08-03T07:41:14.138Z,2.20
2018-08-03T07:43:42.294Z,1.90
2018-08-03T07:46:10.679Z,1.90
2018-08-03T07:48:38.613Z,1.97
2018-08-03T07:53:41.342Z,1.77
2018-08-03T07:56:10.356Z,2.17
2018-08-03T07:58:38.532Z,2.10
2018-08-03T08:01:06.803Z,2.10
2018-08-03T08:03:34.943Z,2.20
2018-08-03T08:06:03.091Z,2.17
2018-08-03T08:08:31.336Z,1.83
2018-08-03T08:11:00.380Z,2.20
2018-08-03T08:13:28.568Z,1.97
2018-08-03T08:15:56.720Z,1.80
2018-08-03T08:18:24.872Z,2.10
2018-08-03T08:20:53.152Z,1.80
2018-08-03T08:23:21.304Z,1.67
2018-08-03T08:25:49.535Z,1.90
2018-08-03T08:28:17.672Z,1.87
2018-08-03T08:30:45.840Z,2.00
2018-08-03T08:33:13.988Z,1.80
2018-08-03T08:35:42.128Z,1.70
2018-08-03T08:38:10.239Z,1.90
2018-08-03T08:40:38.400Z,2.00
2018-08-03T08:43:06.541Z,1.70
2018-08-03T08:45:34.708Z,2.47
2018-08-03T08:48:02.905Z,1.87
2018-08-03T08:50:31.100Z,2.20
2018-08-03T08:52:59.596Z,1.70
2018-08-03T08:55:27.812Z,1.73
2018-08-03T08:57:55.937Z,1.87
2018-08-03T09:00:24.269Z,1.50
2018-08-03T09:02:52.468Z,1.70
2018-08-03T09:05:20.828Z,1.80
2018-08-03T09:07:49.013Z,1.93
2018-08-03T09:10:17.167Z,1.70
2018-08-03T09:12:45.387Z,1.90
2018-08-03T09:15:13.520Z,1.70
2018-08-03T09:17:41.696Z,1.77
2018-08-03T09:20:09.832Z,1.80
2018-08-03T09:22:37.984Z,1.83
2018-08-03T09:25:06.147Z,2.03
2018-08-03T09:27:34.332Z,1.80
2018-08-03T09:30:02.530Z,1.70
2018-08-03T09:32:30.684Z,1.87
2018-08-03T09:34:58.887Z,2.13
2018-08-03T09:37:27.079Z,1.80
2018-08-03T09:39:55.260Z,1.70
2018-08-03T09:42:23.415Z,1.80
2018-08-03T09:44:51.561Z,2.00
2018-08-03T09:47:19.724Z,1.77
2018-08-03T09:49:47.917Z,2.07
2018-08-03T09:52:16.076Z,1.80
2018-08-03T09:54:44.243Z,1.90
2018-08-03T09:57:12.448Z,1.83
2018-08-03T09:59:40.596Z,1.60
2018-08-03T10:02:08.767Z,1.80
2018-08-03T10:04:36.904Z,1.80
2018-08-03T10:07:05.072Z,1.60
2018-08-03T10:09:33.195Z,1.77
2018-08-03T10:12:01.373Z,1.60
2018-08-03T10:14:35.792Z,1.60
2018-08-03T10:17:03.966Z,1.60
2018-08-03T10:19:32.138Z,1.63
2018-08-03T10:22:00.312Z,1.73
2018-08-03T10:24:28.457Z,1.87
2018-08-03T10:26:56.612Z,1.60
2018-08-03T10:29:24.764Z,1.60
2018-08-03T10:31:52.917Z,2.10
2018-08-03T10:34:21.089Z,1.50
2018-08-03T10:36:49.233Z,1.60
2018-08-03T10:39:17.391Z,1.40
2018-08-03T10:41:45.535Z,1.60
2018-08-03T10:44:13.682Z,1.57
2018-08-03T10:46:41.839Z,1.40
2018-08-03T10:49:09.993Z,1.80
2018-08-03T10:51:38.168Z,1.43
2018-08-03T10:54:06.351Z,1.57
2018-08-03T10:56:34.496Z,1.43
2018-08-03T10:59:02.672Z,1.53
2018-08-03T11:01:30.956Z,1.50
2018-08-03T11:03:59.079Z,1.63
2018-08-03T11:06:27.232Z,1.27
2018-08-03T11:08:55.398Z,1.60
2018-08-03T11:11:23.597Z,1.63
2018-08-03T11:13:51.741Z,1.50
2018-08-03T11:16:19.884Z,1.57
2018-08-03T11:18:48.034Z,1.50
2018-08-03T11:21:16.227Z,1.60
2018-08-03T11:23:44.348Z,1.53
2018-08-03T11:26:12.512Z,1.30
2018-08-03T11:28:40.669Z,1.50
2018-08-03T11:31:08.823Z,1.30
2018-08-03T11:33:36.975Z,1.20
2018-08-03T11:36:05.124Z,1.30
2018-08-03T11:38:33.291Z,1.27
2018-08-03T11:41:01.458Z,1.20
2018-08-03T11:43:29.606Z,1.20
2018-08-03T11:45:57.777Z,1.37
2018-08-03T11:48:25.928Z,1.67
2018-08-03T11:50:54.069Z,1.20
2018-08-03T11:53:22.279Z,1.20
2018-08-03T11:55:50.421Z,1.40
2018-08-03T11:58:18.619Z,1.40
2018-08-03T12:00:46.763Z,1.33
2018-08-03T12:03:15.054Z,1.50
2018-08-03T12:05:43.205Z,1.30
2018-08-03T12:08:11.447Z,1.30
2018-08-03T12:10:39.572Z,1.23
2018-08-03T12:13:07.764Z,1.23
2018-08-03T12:15:35.911Z,1.30
2018-08-03T12:18:04.074Z,1.17
2018-08-03T12:20:32.181Z,1.20
2018-08-03T12:23:00.332Z,1.30
2018-08-03T12:25:28.459Z,1.20
2018-08-03T12:27:56.581Z,1.17
2018-08-03T12:30:24.722Z,1.03
2018-08-03T12:32:52.879Z,1.00
2018-08-03T12:35:21.080Z,1.27
2018-08-03T12:37:49.428Z,1.30
2018-08-03T12:40:17.554Z,1.17
2018-08-03T12:42:45.731Z,0.90
2018-08-03T12:45:13.889Z,1.20
2018-08-03T12:47:42.034Z,1.20
2018-08-03T12:50:10.175Z,1.07
2018-08-03T12:52:38.233Z,1.07
2018-08-03T12:55:06.290Z,1.30
2018-08-03T12:57:34.500Z,1.27
2018-08-03T13:00:02.665Z,1.00
2018-08-03T13:02:30.908Z,1.10
2018-08-03T13:04:59.100Z,1.10
2018-08-03T13:07:27.267Z,1.00
2018-08-03T13:09:55.431Z,1.00
2018-08-03T13:12:23.627Z,1.33
2018-08-03T13:14:51.568Z,1.00
2018-08-03T13:17:19.672Z,1.00
2018-08-03T13:19:47.809Z,0.97
2018-08-03T13:22:17.874Z,0.90
2018-08-03T13:24:46.017Z,1.10
2018-08-03T13:27:14.196Z,1.03
2018-08-03T13:29:42.356Z,1.10
2018-08-03T13:32:10.544Z,1.40
2018-08-03T13:34:38.714Z,1.17
2018-08-03T13:37:06.954Z,0.90
2018-08-03T13:39:35.218Z,0.90
2018-08-03T13:42:03.368Z,1.20
2018-08-03T13:44:31.619Z,1.10
2018-08-03T13:46:59.757Z,1.00
2018-08-03T13:49:27.940Z,0.90
2018-08-03T13:51:56.204Z,1.13
2018-08-03T13:54:24.369Z,1.07
2018-08-03T13:56:52.560Z,1.17
2018-08-03T13:59:20.780Z,1.10
2018-08-03T14:02:00.392Z,1.17
2018-08-03T14:04:28.566Z,1.13
2018-08-03T14:06:56.789Z,1.00
2018-08-03T14:09:24.743Z,1.13
2018-08-03T14:11:52.907Z,0.83
2018-08-03T14:14:21.076Z,1.10
2018-08-03T14:16:49.319Z,0.83
2018-08-03T14:19:17.460Z,1.10
2018-08-03T14:21:45.619Z,1.20
2018-08-03T14:24:13.592Z,1.10
2018-08-03T14:26:41.539Z,1.10
2018-08-03T14:29:09.715Z,0.90
2018-08-03T14:31:38.002Z,1.00
2018-08-03T14:34:06.065Z,1.00
2018-08-03T14:36:34.231Z,0.90
2018-08-03T14:39:02.390Z,1.10
2018-08-03T14:41:30.601Z,0.90
2018-08-03T14:43:58.573Z,1.07
2018-08-03T14:46:26.728Z,1.20
2018-08-03T14:48:54.973Z,1.10
2018-08-03T14:51:23.114Z,1.10
2018-08-03T14:53:51.315Z,0.90
2018-08-03T14:56:19.459Z,0.90
2018-08-03T14:58:47.664Z,1.00
2018-08-03T15:01:15.853Z,1.10
2018-08-03T15:03:44.029Z,1.20
2018-08-03T15:06:12.209Z,1.00
2018-08-03T15:08:40.403Z,1.07
2018-08-03T15:11:08.624Z,1.00
2018-08-03T15:13:36.825Z,1.20
2018-08-03T15:16:05.017Z,1.00
2018-08-03T15:18:33.203Z,1.40
2018-08-03T15:21:01.393Z,1.20
2018-08-03T15:23:29.679Z,1.17
2018-08-03T15:25:57.833Z,1.10
2018-08-03T15:28:26.083Z,1.00
2018-08-03T15:30:54.253Z,1.17
2018-08-03T15:33:22.504Z,1.20
2018-08-03T15:35:50.679Z,1.20
2018-08-03T15:38:18.828Z,1.10
2018-08-03T15:40:47.104Z,1.10
2018-08-03T15:43:15.221Z,1.40
2018-08-03T15:45:43.443Z,1.00
2018-08-03T15:48:11.764Z,1.30
2018-08-03T15:50:40.026Z,1.47
2018-08-03T15:53:08.205Z,1.10
2018-08-03T15:55:36.420Z,1.10
2018-08-03T15:58:04.624Z,1.20
2018-08-03T16:00:32.831Z,1.20
2018-08-03T16:03:00.993Z,1.10
2018-08-03T16:05:28.951Z,1.53
2018-08-03T16:07:56.903Z,1.20
2018-08-03T16:10:25.071Z,1.03
2018-08-03T16:12:53.244Z,1.40
2018-08-03T16:15:21.361Z,1.40
2018-08-03T16:17:49.563Z,1.43
2018-08-03T16:20:17.964Z,1.23
2018-08-03T16:22:46.116Z,1.50
2018-08-03T16:25:14.276Z,1.30
2018-08-03T16:27:42.417Z,1.30
2018-08-03T16:30:10.968Z,1.10
2018-08-03T16:32:39.284Z,1.10
2018-08-03T16:35:08.104Z,1.40
2018-08-03T16:37:36.288Z,1.20
2018-08-03T16:40:04.921Z,1.10
2018-08-03T16:42:33.164Z,1.23
2018-08-03T16:45:01.328Z,1.00
2018-08-03T16:47:29.519Z,1.00
2018-08-03T16:49:57.692Z,1.00
2018-08-03T16:52:25.848Z,1.10
2018-08-03T16:54:54.017Z,0.90
2018-08-03T16:57:22.209Z,0.90
2018-08-03T16:59:50.411Z,1.23
2018-08-03T17:02:18.557Z,1.33
2018-08-03T17:04:46.794Z,0.90
2018-08-03T17:07:15.184Z,1.10
2018-08-03T17:09:43.470Z,0.90
2018-08-03T17:12:11.515Z,0.80
2018-08-03T17:14:39.725Z,0.70
2018-08-03T17:17:07.893Z,0.60
2018-08-03T17:19:36.039Z,0.80
2018-08-03T17:22:04.237Z,0.70
2018-08-03T17:24:32.547Z,0.70
2018-08-03T17:27:00.749Z,0.87
2018-08-03T17:29:28.707Z,0.80
2018-08-03T17:31:56.911Z,0.90
2018-08-03T17:34:25.161Z,0.80
2018-08-03T17:36:53.195Z,0.70
2018-08-03T17:39:21.515Z,0.70
2018-08-03T17:41:49.470Z,0.70
2018-08-03T17:44:17.399Z,0.70
2018-08-03T17:46:45.650Z,0.83
2018-08-03T17:49:13.889Z,0.80
2018-08-03T17:51:42.147Z,0.90
2018-08-03T17:54:10.316Z,0.80
2018-08-03T17:56:38.504Z,0.70
2018-08-03T17:59:06.880Z,0.70
2018-08-03T18:01:35.077Z,0.70
2018-08-03T18:04:03.232Z,0.90
2018-08-03T18:06:31.425Z,1.00
2018-08-03T18:08:59.579Z,1.40
2018-08-03T18:11:27.772Z,1.10
2018-08-03T18:13:55.920Z,1.20
2018-08-03T18:16:24.140Z,11.37
2018-08-03T18:18:52.286Z,2.67
2018-08-03T18:21:20.443Z,1.20
2018-08-03T18:23:48.555Z,1.30
2018-08-03T18:26:16.728Z,1.40
2018-08-03T18:28:44.935Z,1.17
2018-08-03T18:31:13.038Z,1.30
2018-08-03T18:33:41.187Z,0.80
2018-08-03T18:36:09.328Z,1.10
2018-08-03T18:38:37.496Z,1.00
2018-08-03T18:41:05.414Z,1.10
2018-08-03T18:43:33.816Z,1.00
2018-08-03T18:46:01.994Z,0.93
2018-08-03T18:48:30.108Z,0.87
2018-08-03T18:50:58.228Z,0.90
2018-08-03T18:53:26.387Z,1.10
2018-08-03T18:55:54.564Z,3.07
2018-08-03T18:58:22.729Z,1.17
2018-08-03T19:00:50.884Z,2.47
2018-08-03T19:03:18.997Z,1.63
2018-08-03T19:05:47.284Z,1.30
2018-08-03T19:08:15.252Z,2.10
2018-08-03T19:10:43.453Z,1.57
2018-08-03T19:13:11.596Z,1.50
2018-08-03T19:15:39.906Z,1.30
2018-08-03T19:18:08.017Z,1.50
2018-08-03T19:20:36.235Z,1.40
2018-08-03T19:23:04.463Z,1.43
2018-08-03T19:25:32.678Z,1.30
2018-08-03T19:28:00.931Z,1.57
2018-08-03T19:30:29.167Z,1.47
2018-08-03T19:32:57.295Z,1.33
2018-08-03T19:35:25.524Z,1.20
2018-08-03T19:37:53.940Z,1.30
2018-08-03T19:40:22.175Z,1.20
2018-08-03T19:42:50.347Z,1.30
2018-08-03T19:45:18.972Z,1.30
2018-08-03T19:47:47.141Z,1.30
2018-08-03T19:50:15.330Z,1.40
2018-08-03T19:52:43.598Z,2.23
2018-08-03T19:55:11.689Z,5.70
2018-08-03T19:57:39.864Z,5.70
2018-08-03T20:00:10.228Z,2.23
2018-08-03T20:02:38.606Z,2.23
2018-08-03T20:05:07.154Z,2.60
2018-08-03T20:07:35.236Z,2.37
2018-08-03T20:10:03.388Z,2.00
2018-08-03T20:12:31.679Z,2.00
2018-08-03T20:14:59.827Z,3.00
2018-08-03T20:17:27.945Z,2.70
2018-08-03T20:19:56.100Z,1.90
2018-08-03T20:22:24.278Z,1.30
2018-08-03T20:24:53.347Z,1.80
2018-08-03T20:27:21.527Z,1.70
2018-08-03T20:29:49.708Z,1.90
2018-08-03T20:32:17.882Z,2.03
2018-08-03T20:34:46.047Z,1.93
2018-08-03T20:37:14.231Z,2.20
2018-08-03T20:39:42.375Z,1.50
2018-08-03T20:42:10.529Z,1.63
2018-08-03T20:44:38.697Z,1.33
2018-08-03T20:47:06.880Z,1.90
2018-08-03T20:49:35.025Z,1.83
2018-08-03T20:52:03.207Z,2.47
2018-08-03T20:54:31.345Z,1.67
2018-08-03T20:56:59.492Z,1.90
2018-08-03T20:59:27.650Z,3.57
2018-08-03T21:01:55.798Z,3.37
2018-08-03T21:04:23.981Z,1.63
2018-08-03T21:06:52.124Z,1.40
2018-08-03T21:09:20.350Z,1.67
2018-08-03T21:11:48.493Z,1.90
2018-08-03T21:14:16.656Z,2.33
2018-08-03T21:16:44.812Z,2.63
2018-08-03T21:19:12.999Z,2.40
2018-08-03T21:21:41.158Z,1.87
2018-08-03T21:24:09.284Z,1.97
2018-08-03T21:26:37.464Z,1.80
2018-08-03T21:29:05.645Z,1.70
2018-08-03T21:31:33.772Z,2.00
2018-08-03T21:34:01.916Z,1.90
2018-08-03T21:36:30.066Z,1.87
2018-08-03T21:38:58.229Z,1.70
2018-08-03T21:41:26.374Z,1.70
2018-08-03T21:43:54.526Z,2.07
2018-08-03T21:46:22.691Z,2.03
2018-08-03T21:48:50.879Z,2.30
2018-08-03T21:51:19.021Z,3.00
2018-08-03T21:53:47.219Z,2.23
2018-08-03T21:56:15.390Z,2.03
2018-08-03T21:58:43.551Z,1.90
2018-08-03T22:01:13.250Z,1.90
2018-08-03T22:03:41.820Z,2.00
2018-08-03T22:06:09.948Z,2.40
2018-08-03T22:08:38.473Z,2.10
2018-08-03T22:11:06.603Z,2.33
2018-08-03T22:13:34.756Z,1.90
2018-08-03T22:16:02.888Z,2.30
2018-08-03T22:18:30.998Z,2.27
2018-08-03T22:20:59.183Z,2.43
2018-08-03T22:23:27.351Z,2.17
2018-08-03T22:25:55.528Z,2.00
2018-08-03T22:28:23.693Z,2.63
2018-08-03T22:30:51.848Z,3.10
2018-08-03T22:33:20.048Z,2.40
2018-08-03T22:35:48.209Z,2.67
2018-08-03T22:38:16.365Z,2.20
2018-08-03T22:40:44.552Z,3.20
2018-08-03T22:43:12.719Z,2.90
2018-08-03T22:45:41.004Z,2.70
2018-08-03T22:48:09.109Z,3.10
2018-08-03T22:50:37.642Z,2.90
2018-08-03T22:53:05.911Z,2.83
2018-08-03T22:55:34.075Z,3.00
2018-08-03T22:58:02.236Z,3.10
2018-08-03T23:00:30.401Z,3.20
2018-08-03T23:02:58.562Z,2.77
2018-08-03T23:05:26.724Z,3.63
2018-08-03T23:07:54.884Z,2.87
2018-08-03T23:10:23.026Z,3.60
2018-08-03T23:12:51.332Z,4.00
2018-08-03T23:15:19.476Z,3.60
2018-08-03T23:17:47.675Z,3.70
2018-08-03T23:20:15.845Z,3.97
2018-08-03T23:22:43.970Z,3.80
2018-08-03T23:25:12.093Z,3.40
2018-08-03T23:27:40.194Z,2.93
2018-08-03T23:30:09.077Z,2.90
2018-08-03T23:32:37.196Z,2.47
2018-08-03T23:35:05.384Z,2.40
2018-08-03T23:37:33.567Z,2.20
2018-08-03T23:40:01.781Z,2.33
2018-08-03T23:42:29.951Z,2.23
2018-08-03T23:44:58.136Z,2.00
2018-08-03T23:47:26.290Z,2.93
2018-08-03T23:49:54.425Z,2.10
2018-08-03T23:52:22.556Z,2.20
2018-08-03T23:54:50.676Z,2.10
2018-08-03T23:57:18.810Z,3.25
2018-08-03T23:59:46.953Z,4.33
